sensor_id;sensor_type;location;lat;lon;timestamp;pressure;altitude;pressure_sealevel;temperature;humidity
17615;BME280;8926;49.720;6.576;2023-12-28T00:01:22;99613.91;;;8.69;63.83
17615;BME280;8926;49.720;6.576;2023-12-28T00:03:48;99610.41;;;8.70;65.12
17615;BME280;8926;49.720;6.576;2023-12-28T00:06:13;99622.66;;;8.68;65.45
17615;BME280;8926;49.720;6.576;2023-12-28T00:08:38;99607.94;;;8.67;64.51
17615;BME280;8926;49.720;6.576;2023-12-28T00:11:04;99613.06;;;8.69;64.80
17615;BME280;8926;49.720;6.576;2023-12-28T00:13:29;99615.44;;;8.73;64.52
17615;BME280;8926;49.720;6.576;2023-12-28T00:15:54;99618.81;;;8.75;65.03
17615;BME280;8926;49.720;6.576;2023-12-28T00:18:19;99611.94;;;8.74;65.69
17615;BME280;8926;49.720;6.576;2023-12-28T00:20:44;99626.00;;;8.70;65.15
17615;BME280;8926;49.720;6.576;2023-12-28T00:23:10;99627.69;;;8.71;65.46
17615;BME280;8926;49.720;6.576;2023-12-28T00:25:35;99624.34;;;8.69;66.05
17615;BME280;8926;49.720;6.576;2023-12-28T00:28:00;99623.41;;;8.70;66.47
17615;BME280;8926;49.720;6.576;2023-12-28T00:30:25;99638.72;;;8.76;66.00
17615;BME280;8926;49.720;6.576;2023-12-28T00:32:50;99625.72;;;8.76;66.28
17615;BME280;8926;49.720;6.576;2023-12-28T00:35:16;99628.41;;;8.75;66.59
17615;BME280;8926;49.720;6.576;2023-12-28T00:37:41;99634.44;;;8.75;67.18
17615;BME280;8926;49.720;6.576;2023-12-28T00:40:06;99650.84;;;8.77;67.32
17615;BME280;8926;49.720;6.576;2023-12-28T00:42:32;99648.22;;;8.77;67.18
17615;BME280;8926;49.720;6.576;2023-12-28T00:44:57;99641.09;;;8.81;67.51
17615;BME280;8926;49.720;6.576;2023-12-28T00:47:22;99648.75;;;8.84;67.79
17615;BME280;8926;49.720;6.576;2023-12-28T00:49:47;99657.31;;;8.86;68.46
17615;BME280;8926;49.720;6.576;2023-12-28T00:52:13;99660.78;;;8.87;69.47
17615;BME280;8926;49.720;6.576;2023-12-28T00:54:38;99660.00;;;8.84;70.20
17615;BME280;8926;49.720;6.576;2023-12-28T00:57:03;99660.00;;;8.84;70.91
17615;BME280;8926;49.720;6.576;2023-12-28T00:59:29;99663.16;;;8.91;71.98
17615;BME280;8926;49.720;6.576;2023-12-28T01:01:55;99670.41;;;8.84;72.91
17615;BME280;8926;49.720;6.576;2023-12-28T01:04:20;99671.25;;;8.85;73.90
17615;BME280;8926;49.720;6.576;2023-12-28T01:06:48;99677.31;;;8.85;74.37
17615;BME280;8926;49.720;6.576;2023-12-28T01:09:13;99694.63;;;8.87;75.07
17615;BME280;8926;49.720;6.576;2023-12-28T01:11:38;99685.22;;;8.84;76.36
17615;BME280;8926;49.720;6.576;2023-12-28T01:14:03;99679.16;;;8.83;77.33
17615;BME280;8926;49.720;6.576;2023-12-28T01:16:28;99685.00;;;8.71;78.50
17615;BME280;8926;49.720;6.576;2023-12-28T01:18:54;99694.16;;;8.61;80.46
17615;BME280;8926;49.720;6.576;2023-12-28T01:21:19;99703.22;;;8.54;80.86
17615;BME280;8926;49.720;6.576;2023-12-28T01:23:44;99699.84;;;8.52;80.69
17615;BME280;8926;49.720;6.576;2023-12-28T01:26:13;99704.38;;;8.48;81.88
17615;BME280;8926;49.720;6.576;2023-12-28T01:28:39;99706.41;;;8.42;82.48
17615;BME280;8926;49.720;6.576;2023-12-28T01:31:04;99710.84;;;8.40;83.09
17615;BME280;8926;49.720;6.576;2023-12-28T01:33:29;99706.63;;;8.37;83.65
17615;BME280;8926;49.720;6.576;2023-12-28T01:35:55;99716.50;;;8.31;84.52
17615;BME280;8926;49.720;6.576;2023-12-28T01:38:20;99721.69;;;8.31;84.65
17615;BME280;8926;49.720;6.576;2023-12-28T01:40:45;99720.00;;;8.30;85.58
17615;BME280;8926;49.720;6.576;2023-12-28T01:43:11;99717.41;;;8.30;86.02
17615;BME280;8926;49.720;6.576;2023-12-28T01:45:36;99726.34;;;8.24;87.99
17615;BME280;8926;49.720;6.576;2023-12-28T01:48:01;99722.88;;;8.24;87.53
17615;BME280;8926;49.720;6.576;2023-12-28T01:50:26;99725.50;;;8.24;88.44
17615;BME280;8926;49.720;6.576;2023-12-28T01:52:52;99734.34;;;8.20;89.61
17615;BME280;8926;49.720;6.576;2023-12-28T01:55:19;99734.50;;;8.16;90.04
17615;BME280;8926;49.720;6.576;2023-12-28T01:57:46;99715.66;;;8.11;91.67
17615;BME280;8926;49.720;6.576;2023-12-28T02:00:11;99718.25;;;8.11;90.39
17615;BME280;8926;49.720;6.576;2023-12-28T02:02:36;99729.28;;;8.16;91.66
17615;BME280;8926;49.720;6.576;2023-12-28T02:05:02;99729.16;;;8.20;91.35
17615;BME280;8926;49.720;6.576;2023-12-28T02:07:27;99736.75;;;8.24;90.54
17615;BME280;8926;49.720;6.576;2023-12-28T02:09:54;99730.69;;;8.24;90.96
17615;BME280;8926;49.720;6.576;2023-12-28T02:12:19;99734.06;;;8.26;91.44
17615;BME280;8926;49.720;6.576;2023-12-28T02:14:44;99732.38;;;8.25;91.88
17615;BME280;8926;49.720;6.576;2023-12-28T02:17:20;99735.91;;;8.24;91.75
17615;BME280;8926;49.720;6.576;2023-12-28T02:22:12;99748.91;;;8.24;93.63
17615;BME280;8926;49.720;6.576;2023-12-28T02:27:23;99754.69;;;8.30;91.72
17615;BME280;8926;49.720;6.576;2023-12-28T02:29:48;99747.94;;;8.26;93.48
17615;BME280;8926;49.720;6.576;2023-12-28T02:32:13;99749.69;;;8.26;93.50
17615;BME280;8926;49.720;6.576;2023-12-28T02:34:40;99751.78;;;8.17;94.41
17615;BME280;8926;49.720;6.576;2023-12-28T02:37:07;99757.91;;;8.16;94.35
17615;BME280;8926;49.720;6.576;2023-12-28T02:39:34;99751.03;;;8.15;94.54
17615;BME280;8926;49.720;6.576;2023-12-28T02:42:00;99739.56;;;8.20;95.08
17615;BME280;8926;49.720;6.576;2023-12-28T02:44:26;99744.63;;;8.23;93.63
17615;BME280;8926;49.720;6.576;2023-12-28T02:46:51;99743.63;;;8.25;94.08
17615;BME280;8926;49.720;6.576;2023-12-28T02:49:16;99747.84;;;8.28;94.48
17615;BME280;8926;49.720;6.576;2023-12-28T02:51:41;99746.03;;;8.30;94.51
17615;BME280;8926;49.720;6.576;2023-12-28T02:54:07;99744.34;;;8.29;95.22
17615;BME280;8926;49.720;6.576;2023-12-28T02:56:33;99743.28;;;8.33;93.56
17615;BME280;8926;49.720;6.576;2023-12-28T02:58:58;99737.03;;;8.37;93.66
17615;BME280;8926;49.720;6.576;2023-12-28T03:01:23;99731.81;;;8.37;94.64
17615;BME280;8926;49.720;6.576;2023-12-28T03:03:48;99742.22;;;8.37;94.76
17615;BME280;8926;49.720;6.576;2023-12-28T03:06:14;99738.56;;;8.41;94.45
17615;BME280;8926;49.720;6.576;2023-12-28T03:08:39;99750.66;;;8.42;94.43
17615;BME280;8926;49.720;6.576;2023-12-28T03:11:04;99751.28;;;8.47;94.40
17615;BME280;8926;49.720;6.576;2023-12-28T03:13:30;99736.59;;;8.46;94.22
17615;BME280;8926;49.720;6.576;2023-12-28T03:15:56;99746.88;;;8.49;94.41
17615;BME280;8926;49.720;6.576;2023-12-28T03:18:22;99738.00;;;8.53;94.66
17615;BME280;8926;49.720;6.576;2023-12-28T03:20:47;99725.88;;;8.52;94.71
17615;BME280;8926;49.720;6.576;2023-12-28T03:23:12;99733.78;;;8.50;94.79
17615;BME280;8926;49.720;6.576;2023-12-28T03:25:38;99734.47;;;8.54;95.32
17615;BME280;8926;49.720;6.576;2023-12-28T03:28:03;99741.38;;;8.55;95.12
17615;BME280;8926;49.720;6.576;2023-12-28T03:30:28;99729.41;;;8.51;95.78
17615;BME280;8926;49.720;6.576;2023-12-28T03:32:53;99717.44;;;8.47;96.12
17615;BME280;8926;49.720;6.576;2023-12-28T03:35:18;99725.47;;;8.42;96.15
17615;BME280;8926;49.720;6.576;2023-12-28T03:37:44;99722.94;;;8.41;96.77
17615;BME280;8926;49.720;6.576;2023-12-28T03:40:09;99716.91;;;8.40;96.59
17615;BME280;8926;49.720;6.576;2023-12-28T03:42:35;99719.50;;;8.40;96.98
17615;BME280;8926;49.720;6.576;2023-12-28T03:45:00;99708.19;;;8.41;96.21
17615;BME280;8926;49.720;6.576;2023-12-28T03:47:25;99716.81;;;8.42;96.12
17615;BME280;8926;49.720;6.576;2023-12-28T03:49:50;99714.38;;;8.39;96.06
17615;BME280;8926;49.720;6.576;2023-12-28T03:52:15;99721.13;;;8.43;96.00
17615;BME280;8926;49.720;6.576;2023-12-28T03:54:41;99721.13;;;8.43;96.17
17615;BME280;8926;49.720;6.576;2023-12-28T03:57:06;99719.28;;;8.45;96.58
17615;BME280;8926;49.720;6.576;2023-12-28T03:59:31;99718.84;;;8.54;95.93
17615;BME280;8926;49.720;6.576;2023-12-28T04:01:56;99717.00;;;8.56;96.31
17615;BME280;8926;49.720;6.576;2023-12-28T04:04:22;99710.88;;;8.57;96.55
17615;BME280;8926;49.720;6.576;2023-12-28T04:06:47;99716.00;;;8.59;96.21
17615;BME280;8926;49.720;6.576;2023-12-28T04:09:12;99715.91;;;8.60;96.34
17615;BME280;8926;49.720;6.576;2023-12-28T04:11:37;99716.53;;;8.65;96.04
17615;BME280;8926;49.720;6.576;2023-12-28T04:14:03;99724.81;;;8.73;95.59
17615;BME280;8926;49.720;6.576;2023-12-28T04:16:28;99721.31;;;8.74;96.26
17615;BME280;8926;49.720;6.576;2023-12-28T04:18:53;99727.44;;;8.73;96.03
17615;BME280;8926;49.720;6.576;2023-12-28T04:21:18;99728.34;;;8.72;96.73
17615;BME280;8926;49.720;6.576;2023-12-28T04:23:44;99734.09;;;8.79;96.55
17615;BME280;8926;49.720;6.576;2023-12-28T04:26:09;99734.94;;;8.79;96.04
17615;BME280;8926;49.720;6.576;2023-12-28T04:28:34;99734.63;;;8.85;96.43
17615;BME280;8926;49.720;6.576;2023-12-28T04:31:06;99720.84;;;8.83;95.98
17615;BME280;8926;49.720;6.576;2023-12-28T04:33:32;99725.88;;;8.87;96.65
17615;BME280;8926;49.720;6.576;2023-12-28T04:36:00;99718.16;;;8.85;96.34
17615;BME280;8926;49.720;6.576;2023-12-28T04:38:25;99712.28;;;8.81;96.70
17615;BME280;8926;49.720;6.576;2023-12-28T04:40:50;99715.53;;;8.85;96.18
17615;BME280;8926;49.720;6.576;2023-12-28T04:43:15;99718.00;;;8.88;95.88
17615;BME280;8926;49.720;6.576;2023-12-28T04:45:40;99723.28;;;8.87;96.55
17615;BME280;8926;49.720;6.576;2023-12-28T04:48:06;99718.84;;;8.89;95.96
17615;BME280;8926;49.720;6.576;2023-12-28T04:50:31;99724.75;;;8.92;95.99
17615;BME280;8926;49.720;6.576;2023-12-28T04:52:56;99703.06;;;8.92;96.39
17615;BME280;8926;49.720;6.576;2023-12-28T04:55:21;99702.91;;;8.95;96.65
17615;BME280;8926;49.720;6.576;2023-12-28T04:57:46;99719.47;;;8.94;96.20
17615;BME280;8926;49.720;6.576;2023-12-28T05:00:12;99707.19;;;8.96;96.39
17615;BME280;8926;49.720;6.576;2023-12-28T05:02:37;99707.81;;;9.01;96.16
17615;BME280;8926;49.720;6.576;2023-12-28T05:05:02;99713.19;;;8.98;95.90
17615;BME280;8926;49.720;6.576;2023-12-28T05:07:28;99706.97;;;9.00;96.59
17615;BME280;8926;49.720;6.576;2023-12-28T05:09:53;99700.78;;;9.03;95.93
17615;BME280;8926;49.720;6.576;2023-12-28T05:12:18;99698.09;;;9.04;96.33
17615;BME280;8926;49.720;6.576;2023-12-28T05:14:43;99716.25;;;9.06;95.76
17615;BME280;8926;49.720;6.576;2023-12-28T05:17:08;99711.03;;;9.06;96.23
17615;BME280;8926;49.720;6.576;2023-12-28T05:19:34;99706.50;;;9.09;95.90
17615;BME280;8926;49.720;6.576;2023-12-28T05:21:59;99700.47;;;9.09;95.96
17615;BME280;8926;49.720;6.576;2023-12-28T05:24:28;99709.94;;;9.10;96.10
17615;BME280;8926;49.720;6.576;2023-12-28T05:26:53;99710.69;;;9.12;95.78
17615;BME280;8926;49.720;6.576;2023-12-28T05:29:18;99700.28;;;9.12;95.59
17615;BME280;8926;49.720;6.576;2023-12-28T05:31:43;99700.13;;;9.15;95.69
17615;BME280;8926;49.720;6.576;2023-12-28T05:34:08;99708.00;;;9.13;95.40
17615;BME280;8926;49.720;6.576;2023-12-28T05:36:34;99707.94;;;9.15;95.72
17615;BME280;8926;49.720;6.576;2023-12-28T05:38:59;99707.16;;;9.13;95.99
17615;BME280;8926;49.720;6.576;2023-12-28T05:41:24;99710.38;;;9.18;95.88
17615;BME280;8926;49.720;6.576;2023-12-28T05:43:49;99713.91;;;9.17;95.34
17615;BME280;8926;49.720;6.576;2023-12-28T05:46:15;99721.59;;;9.20;95.72
17615;BME280;8926;49.720;6.576;2023-12-28T05:48:40;99718.28;;;9.16;95.79
17615;BME280;8926;49.720;6.576;2023-12-28T05:51:05;99724.19;;;9.20;95.39
17615;BME280;8926;49.720;6.576;2023-12-28T05:53:30;99729.25;;;9.23;95.11
17615;BME280;8926;49.720;6.576;2023-12-28T05:55:55;99722.03;;;9.28;95.06
17615;BME280;8926;49.720;6.576;2023-12-28T05:58:21;99732.47;;;9.28;95.13
17615;BME280;8926;49.720;6.576;2023-12-28T06:00:46;99725.41;;;9.30;94.93
17615;BME280;8926;49.720;6.576;2023-12-28T06:03:13;99729.56;;;9.34;94.79
17615;BME280;8926;49.720;6.576;2023-12-28T06:05:38;99727.09;;;9.31;95.16
17615;BME280;8926;49.720;6.576;2023-12-28T06:08:03;99732.31;;;9.31;95.03
17615;BME280;8926;49.720;6.576;2023-12-28T06:10:29;99728.78;;;9.32;95.10
17615;BME280;8926;49.720;6.576;2023-12-28T06:12:54;99735.69;;;9.33;95.59
17615;BME280;8926;49.720;6.576;2023-12-28T06:15:19;99736.34;;;9.37;94.97
17615;BME280;8926;49.720;6.576;2023-12-28T06:17:44;99743.94;;;9.41;94.81
17615;BME280;8926;49.720;6.576;2023-12-28T06:20:10;99740.56;;;9.39;95.06
17615;BME280;8926;49.720;6.576;2023-12-28T06:22:38;99745.47;;;9.45;95.10
17615;BME280;8926;49.720;6.576;2023-12-28T06:25:03;99745.31;;;9.48;94.68
17615;BME280;8926;49.720;6.576;2023-12-28T06:27:29;99748.69;;;9.50;95.00
17615;BME280;8926;49.720;6.576;2023-12-28T06:29:54;99745.00;;;9.55;94.86
17615;BME280;8926;49.720;6.576;2023-12-28T06:32:20;99747.59;;;9.55;94.37
17615;BME280;8926;49.720;6.576;2023-12-28T06:34:45;99740.69;;;9.53;94.43
17615;BME280;8926;49.720;6.576;2023-12-28T06:37:10;99741.31;;;9.59;94.65
17615;BME280;8926;49.720;6.576;2023-12-28T06:39:36;99743.00;;;9.60;94.06
17615;BME280;8926;49.720;6.576;2023-12-28T06:42:01;99744.66;;;9.61;93.93
17615;BME280;8926;49.720;6.576;2023-12-28T06:44:26;99753.41;;;9.60;94.10
17615;BME280;8926;49.720;6.576;2023-12-28T06:46:51;99748.00;;;9.63;93.99
17615;BME280;8926;49.720;6.576;2023-12-28T06:49:16;99753.22;;;9.63;94.25
17615;BME280;8926;49.720;6.576;2023-12-28T06:51:41;99756.59;;;9.65;93.72
17615;BME280;8926;49.720;6.576;2023-12-28T06:54:08;99759.13;;;9.66;93.85
17615;BME280;8926;49.720;6.576;2023-12-28T06:56:34;99744.31;;;9.67;94.08
17615;BME280;8926;49.720;6.576;2023-12-28T06:58:59;99758.28;;;9.66;93.39
17615;BME280;8926;49.720;6.576;2023-12-28T07:01:24;99755.53;;;9.69;93.34
17615;BME280;8926;49.720;6.576;2023-12-28T07:03:49;99759.66;;;9.73;92.77
17615;BME280;8926;49.720;6.576;2023-12-28T07:06:15;99758.81;;;9.72;92.77
17615;BME280;8926;49.720;6.576;2023-12-28T07:08:40;99762.25;;;9.73;92.76
17615;BME280;8926;49.720;6.576;2023-12-28T07:11:05;99763.03;;;9.75;92.40
17615;BME280;8926;49.720;6.576;2023-12-28T07:13:30;99769.16;;;9.74;92.55
17615;BME280;8926;49.720;6.576;2023-12-28T07:15:55;99771.78;;;9.74;92.28
17615;BME280;8926;49.720;6.576;2023-12-28T07:18:21;99771.63;;;9.77;91.93
17615;BME280;8926;49.720;6.576;2023-12-28T07:20:46;99762.03;;;9.77;91.47
17615;BME280;8926;49.720;6.576;2023-12-28T07:23:11;99760.41;;;9.75;91.53
17615;BME280;8926;49.720;6.576;2023-12-28T07:25:37;99752.75;;;9.72;91.64
17615;BME280;8926;49.720;6.576;2023-12-28T07:28:02;99752.75;;;9.72;91.50
17615;BME280;8926;49.720;6.576;2023-12-28T07:30:27;99750.91;;;9.74;91.50
17615;BME280;8926;49.720;6.576;2023-12-28T07:32:52;99754.44;;;9.73;91.56
17615;BME280;8926;49.720;6.576;2023-12-28T07:35:18;99752.59;;;9.75;91.26
17615;BME280;8926;49.720;6.576;2023-12-28T07:37:43;99745.69;;;9.74;91.41
17615;BME280;8926;49.720;6.576;2023-12-28T07:40:09;99750.91;;;9.74;90.99
17615;BME280;8926;49.720;6.576;2023-12-28T07:42:34;99756.28;;;9.71;90.92
17615;BME280;8926;49.720;6.576;2023-12-28T07:45:00;99765.78;;;9.72;91.37
17615;BME280;8926;49.720;6.576;2023-12-28T07:47:25;99773.78;;;9.69;91.18
17615;BME280;8926;49.720;6.576;2023-12-28T07:49:52;99769.25;;;9.72;90.61
17615;BME280;8926;49.720;6.576;2023-12-28T07:52:17;99775.47;;;9.70;90.97
17615;BME280;8926;49.720;6.576;2023-12-28T07:54:42;99780.69;;;9.70;91.08
17615;BME280;8926;49.720;6.576;2023-12-28T07:57:07;99777.16;;;9.71;90.58
17615;BME280;8926;49.720;6.576;2023-12-28T07:59:32;99784.06;;;9.72;90.75
17615;BME280;8926;49.720;6.576;2023-12-28T08:01:58;99781.38;;;9.73;90.48
17615;BME280;8926;49.720;6.576;2023-12-28T08:04:23;99780.69;;;9.70;91.21
17615;BME280;8926;49.720;6.576;2023-12-28T08:06:48;99791.88;;;9.72;90.90
17615;BME280;8926;49.720;6.576;2023-12-28T08:09:13;99782.22;;;9.74;91.07
17615;BME280;8926;49.720;6.576;2023-12-28T08:11:38;99789.88;;;9.77;90.41
17615;BME280;8926;49.720;6.576;2023-12-28T08:14:04;99784.75;;;9.75;90.93
17615;BME280;8926;49.720;6.576;2023-12-28T08:16:29;99785.28;;;9.82;90.38
17615;BME280;8926;49.720;6.576;2023-12-28T08:18:55;99794.09;;;9.79;90.77
17615;BME280;8926;49.720;6.576;2023-12-28T08:21:20;99798.91;;;9.87;90.23
17615;BME280;8926;49.720;6.576;2023-12-28T08:23:45;99795.53;;;9.85;90.19
17615;BME280;8926;49.720;6.576;2023-12-28T08:26:10;99798.72;;;9.90;90.23
17615;BME280;8926;49.720;6.576;2023-12-28T08:28:36;99801.34;;;9.90;89.99
17615;BME280;8926;49.720;6.576;2023-12-28T08:31:01;99790.59;;;9.96;89.69
17615;BME280;8926;49.720;6.576;2023-12-28T08:33:26;99801.78;;;9.98;89.76
17615;BME280;8926;49.720;6.576;2023-12-28T08:35:51;99796.25;;;10.04;89.66
17615;BME280;8926;49.720;6.576;2023-12-28T08:38:18;99797.59;;;10.11;88.64
17615;BME280;8926;49.720;6.576;2023-12-28T08:40:43;99800.78;;;10.16;89.00
17615;BME280;8926;49.720;6.576;2023-12-28T08:43:09;99796.13;;;10.23;88.94
17615;BME280;8926;49.720;6.576;2023-12-28T08:45:34;99787.72;;;10.34;88.80
17615;BME280;8926;49.720;6.576;2023-12-28T08:48:00;99793.59;;;10.37;88.50
17615;BME280;8926;49.720;6.576;2023-12-28T08:50:25;99793.06;;;10.46;88.44
17615;BME280;8926;49.720;6.576;2023-12-28T08:52:51;99791.06;;;10.51;87.70
17615;BME280;8926;49.720;6.576;2023-12-28T08:55:16;99800.84;;;10.48;87.70
17615;BME280;8926;49.720;6.576;2023-12-28T08:57:41;99799.16;;;10.47;87.75
17615;BME280;8926;49.720;6.576;2023-12-28T09:00:06;99800.84;;;10.48;87.73
17615;BME280;8926;49.720;6.576;2023-12-28T09:02:32;99807.91;;;10.46;87.63
17615;BME280;8926;49.720;6.576;2023-12-28T09:04:58;99814.81;;;10.47;87.52
17615;BME280;8926;49.720;6.576;2023-12-28T09:07:23;99813.72;;;10.51;87.54
17615;BME280;8926;49.720;6.576;2023-12-28T09:09:49;99825.69;;;10.55;87.24
17615;BME280;8926;49.720;6.576;2023-12-28T09:12:14;99820.31;;;10.58;87.17
17615;BME280;8926;49.720;6.576;2023-12-28T09:14:39;99822.91;;;10.58;86.84
17615;BME280;8926;49.720;6.576;2023-12-28T09:17:04;99825.69;;;10.55;87.28
17615;BME280;8926;49.720;6.576;2023-12-28T09:19:29;99819.72;;;10.53;87.26
17615;BME280;8926;49.720;6.576;2023-12-28T09:21:54;99828.47;;;10.52;87.18
17615;BME280;8926;49.720;6.576;2023-12-28T09:24:20;99819.88;;;10.50;87.15
17615;BME280;8926;49.720;6.576;2023-12-28T09:26:45;99822.06;;;10.42;87.36
17615;BME280;8926;49.720;6.576;2023-12-28T09:29:10;99827.28;;;10.42;87.33
17615;BME280;8926;49.720;6.576;2023-12-28T09:31:36;99834.19;;;10.43;86.79
17615;BME280;8926;49.720;6.576;2023-12-28T09:34:02;99821.72;;;10.48;86.58
17615;BME280;8926;49.720;6.576;2023-12-28T09:36:27;99829.47;;;10.49;86.23
17615;BME280;8926;49.720;6.576;2023-12-28T09:38:52;99825.25;;;10.47;86.37
17615;BME280;8926;49.720;6.576;2023-12-28T09:41:18;99835.72;;;10.47;86.45
17615;BME280;8926;49.720;6.576;2023-12-28T09:43:49;99832.50;;;10.42;86.56
17615;BME280;8926;49.720;6.576;2023-12-28T09:46:17;99840.00;;;10.48;86.77
17615;BME280;8926;49.720;6.576;2023-12-28T09:48:42;99833.84;;;10.49;86.69
17615;BME280;8926;49.720;6.576;2023-12-28T09:51:08;99835.72;;;10.47;86.69
17615;BME280;8926;49.720;6.576;2023-12-28T09:53:35;99842.44;;;10.51;86.67
17615;BME280;8926;49.720;6.576;2023-12-28T09:56:00;99835.53;;;10.50;86.65
17615;BME280;8926;49.720;6.576;2023-12-28T09:58:25;99831.16;;;10.50;86.92
17615;BME280;8926;49.720;6.576;2023-12-28T10:00:51;99841.63;;;10.50;86.95
17615;BME280;8926;49.720;6.576;2023-12-28T10:03:16;99832.00;;;10.51;86.77
17615;BME280;8926;49.720;6.576;2023-12-28T10:05:42;99830.31;;;10.50;86.63
17615;BME280;8926;49.720;6.576;2023-12-28T10:08:08;99837.22;;;10.51;86.84
17615;BME280;8926;49.720;6.576;2023-12-28T10:10:33;99819.72;;;10.53;86.29
17615;BME280;8926;49.720;6.576;2023-12-28T10:12:58;99815.25;;;10.55;86.35
17615;BME280;8926;49.720;6.576;2023-12-28T10:15:23;99823.56;;;10.77;85.74
17615;BME280;8926;49.720;6.576;2023-12-28T10:17:51;99820.78;;;11.84;81.41
17615;BME280;8926;49.720;6.576;2023-12-28T10:20:16;99804.09;;;11.57;81.93
17615;BME280;8926;49.720;6.576;2023-12-28T10:22:41;99801.22;;;12.60;78.12
17615;BME280;8926;49.720;6.576;2023-12-28T10:25:07;99810.47;;;12.65;78.02
17615;BME280;8926;49.720;6.576;2023-12-28T10:27:32;99814.13;;;12.07;79.21
17615;BME280;8926;49.720;6.576;2023-12-28T10:30:02;99811.31;;;12.10;79.59
17615;BME280;8926;49.720;6.576;2023-12-28T10:32:27;99811.72;;;11.90;80.55
17615;BME280;8926;49.720;6.576;2023-12-28T10:34:52;99809.06;;;11.76;81.12
17615;BME280;8926;49.720;6.576;2023-12-28T10:37:18;99815.56;;;11.54;81.61
17615;BME280;8926;49.720;6.576;2023-12-28T10:39:44;99809.19;;;11.44;82.18
17615;BME280;8926;49.720;6.576;2023-12-28T10:42:11;99810.34;;;11.54;82.13
17615;BME280;8926;49.720;6.576;2023-12-28T10:44:39;99804.94;;;12.29;80.02
17615;BME280;8926;49.720;6.576;2023-12-28T10:47:07;99793.63;;;12.82;78.19
17615;BME280;8926;49.720;6.576;2023-12-28T10:49:33;99791.47;;;12.88;76.78
17615;BME280;8926;49.720;6.576;2023-12-28T10:52:01;99790.53;;;13.29;75.46
17615;BME280;8926;49.720;6.576;2023-12-28T10:54:33;99785.91;;;13.96;73.21
17615;BME280;8926;49.720;6.576;2023-12-28T10:57:06;99774.56;;;13.96;71.70
17615;BME280;8926;49.720;6.576;2023-12-28T10:59:40;99779.19;;;13.29;73.40
17615;BME280;8926;49.720;6.576;2023-12-28T11:02:09;99773.84;;;12.90;75.27
17615;BME280;8926;49.720;6.576;2023-12-28T11:04:46;99789.50;;;12.65;76.08
17615;BME280;8926;49.720;6.576;2023-12-28T11:07:13;99782.22;;;12.56;76.75
17615;BME280;8926;49.720;6.576;2023-12-28T11:09:41;99780.94;;;12.49;77.69
17615;BME280;8926;49.720;6.576;2023-12-28T11:12:07;99781.84;;;12.48;77.69
17615;BME280;8926;49.720;6.576;2023-12-28T11:14:33;99776.38;;;12.38;78.25
17615;BME280;8926;49.720;6.576;2023-12-28T11:16:59;99771.53;;;12.32;78.25
17615;BME280;8926;49.720;6.576;2023-12-28T11:19:25;99771.66;;;13.24;76.30
17615;BME280;8926;49.720;6.576;2023-12-28T11:21:51;99768.09;;;13.50;74.87
17615;BME280;8926;49.720;6.576;2023-12-28T11:24:17;99757.16;;;13.31;75.62
17615;BME280;8926;49.720;6.576;2023-12-28T11:26:42;99763.44;;;13.16;75.89
17615;BME280;8926;49.720;6.576;2023-12-28T11:29:08;99759.84;;;12.77;77.07
17615;BME280;8926;49.720;6.576;2023-12-28T11:31:33;99758.84;;;12.53;77.70
17615;BME280;8926;49.720;6.576;2023-12-28T11:34:03;99743.47;;;12.34;78.64
17615;BME280;8926;49.720;6.576;2023-12-28T11:36:35;99746.13;;;12.20;79.48
17615;BME280;8926;49.720;6.576;2023-12-28T11:39:01;99740.25;;;12.16;79.76
17615;BME280;8926;49.720;6.576;2023-12-28T11:41:27;99734.94;;;12.04;80.43
17615;BME280;8926;49.720;6.576;2023-12-28T11:43:53;99749.53;;;11.94;80.58
17615;BME280;8926;49.720;6.576;2023-12-28T11:46:18;99729.72;;;12.31;80.12
17615;BME280;8926;49.720;6.576;2023-12-28T11:48:44;99736.88;;;12.14;80.07
17615;BME280;8926;49.720;6.576;2023-12-28T11:51:09;99730.50;;;12.18;80.15
17615;BME280;8926;49.720;6.576;2023-12-28T11:53:35;99727.53;;;11.96;80.60
17615;BME280;8926;49.720;6.576;2023-12-28T11:56:00;99723.78;;;12.00;81.03
17615;BME280;8926;49.720;6.576;2023-12-28T11:58:27;99730.34;;;12.07;80.86
17615;BME280;8926;49.720;6.576;2023-12-28T12:00:52;99729.22;;;11.97;81.33
17615;BME280;8926;49.720;6.576;2023-12-28T12:03:18;99723.63;;;11.75;81.98
17615;BME280;8926;49.720;6.576;2023-12-28T12:05:44;99730.38;;;11.65;82.53
17615;BME280;8926;49.720;6.576;2023-12-28T12:08:10;99721.03;;;11.61;83.12
17615;BME280;8926;49.720;6.576;2023-12-28T12:10:41;99723.44;;;11.64;83.05
17615;BME280;8926;49.720;6.576;2023-12-28T12:13:07;99720.84;;;11.64;83.34
17615;BME280;8926;49.720;6.576;2023-12-28T12:15:32;99722.06;;;11.86;83.18
17615;BME280;8926;49.720;6.576;2023-12-28T12:17:58;99718.88;;;12.22;82.23
17615;BME280;8926;49.720;6.576;2023-12-28T12:20:23;99728.72;;;12.19;81.89
17615;BME280;8926;49.720;6.576;2023-12-28T12:22:48;99722.31;;;11.96;82.70
17615;BME280;8926;49.720;6.576;2023-12-28T12:25:17;99735.06;;;11.88;82.99
17615;BME280;8926;49.720;6.576;2023-12-28T12:27:44;99723.59;;;12.03;82.94
17615;BME280;8926;49.720;6.576;2023-12-28T12:30:10;99719.09;;;12.19;82.61
17615;BME280;8926;49.720;6.576;2023-12-28T12:32:35;99717.78;;;12.66;80.94
17615;BME280;8926;49.720;6.576;2023-12-28T12:35:07;99712.38;;;12.82;80.50
17615;BME280;8926;49.720;6.576;2023-12-28T12:37:33;99706.56;;;12.64;80.07
17615;BME280;8926;49.720;6.576;2023-12-28T12:39:58;99711.41;;;12.70;79.96
17615;BME280;8926;49.720;6.576;2023-12-28T12:42:23;99705.94;;;12.34;81.21
17615;BME280;8926;49.720;6.576;2023-12-28T12:44:48;99712.50;;;12.27;81.59
17615;BME280;8926;49.720;6.576;2023-12-28T12:47:13;99706.72;;;12.21;81.34
17615;BME280;8926;49.720;6.576;2023-12-28T12:49:39;99698.25;;;12.45;81.32
17615;BME280;8926;49.720;6.576;2023-12-28T12:52:06;99704.84;;;12.23;81.23
17615;BME280;8926;49.720;6.576;2023-12-28T12:54:32;99699.41;;;12.27;81.44
17615;BME280;8926;49.720;6.576;2023-12-28T12:56:57;99696.25;;;12.21;81.72
17615;BME280;8926;49.720;6.576;2023-12-28T12:59:22;99694.81;;;12.30;81.72
17615;BME280;8926;49.720;6.576;2023-12-28T13:01:47;99690.94;;;12.63;81.06
17615;BME280;8926;49.720;6.576;2023-12-28T13:04:17;99685.41;;;12.67;80.56
17615;BME280;8926;49.720;6.576;2023-12-28T13:06:42;99693.88;;;12.58;80.18
17615;BME280;8926;49.720;6.576;2023-12-28T13:09:08;99685.66;;;12.50;80.03
17615;BME280;8926;49.720;6.576;2023-12-28T13:11:35;99686.50;;;12.50;80.30
17615;BME280;8926;49.720;6.576;2023-12-28T13:14:01;99693.59;;;12.36;80.75